createdAt,value
2019-03-28T00:04:11.293Z,14.93
2019-03-28T00:07:34.004Z,16.20
2019-03-28T00:14:17.387Z,17.50
2019-03-28T00:17:43.718Z,17.50
2019-03-28T00:24:47.397Z,16.77
2019-03-28T00:31:12.304Z,17.23
2019-03-28T00:34:11.474Z,16.80
2019-03-28T00:40:54.190Z,17.73
2019-03-28T00:51:11.023Z,16.77
2019-03-28T00:54:30.443Z,17.77
2019-03-28T00:57:58.879Z,17.47
2019-03-28T01:04:47.208Z,18.07
2019-03-28T01:12:03.848Z,17.57
2019-03-28T01:15:13.015Z,18.20
2019-03-28T01:18:34.759Z,19.77
2019-03-28T01:25:15.322Z,19.30
2019-03-28T01:28:39.708Z,19.67
2019-03-28T01:35:22.019Z,19.57
2019-03-28T01:38:45.164Z,19.37
2019-03-28T01:41:46.127Z,19.27
2019-03-28T01:45:08.326Z,18.37
2019-03-28T01:48:08.958Z,18.70
2019-03-28T01:51:25.957Z,18.30
2019-03-28T01:54:36.039Z,19.63
2019-03-28T02:01:36.829Z,18.37
2019-03-28T02:05:17.243Z,18.70
2019-03-28T02:12:29.928Z,18.90
2019-03-28T02:15:33.529Z,19.60
2019-03-28T02:21:45.872Z,20.97
2019-03-28T02:25:16.756Z,19.77
2019-03-28T02:35:13.821Z,19.47
2019-03-28T02:38:28.959Z,22.27
2019-03-28T02:41:37.355Z,20.60
2019-03-28T02:54:53.013Z,20.47
2019-03-28T02:58:01.289Z,21.33
2019-03-28T03:01:21.048Z,18.53
2019-03-28T03:04:24.558Z,20.27
2019-03-28T03:11:06.871Z,21.07
2019-03-28T03:14:31.614Z,21.47
2019-03-28T03:17:46.841Z,22.77
2019-03-28T03:24:30.087Z,20.43
2019-03-28T03:27:55.974Z,20.43
2019-03-28T03:30:39.126Z,21.00
2019-03-28T03:34:27.005Z,20.93
2019-03-28T03:37:38.461Z,21.57
2019-03-28T03:41:00.980Z,19.93
2019-03-28T03:44:10.560Z,22.33
2019-03-28T03:54:21.859Z,21.57
2019-03-28T04:01:05.769Z,21.27
2019-03-28T04:04:27.709Z,21.67
2019-03-28T04:13:30.017Z,22.07
2019-03-28T04:20:11.824Z,22.80
2019-03-28T04:30:07.950Z,22.40
2019-03-28T04:32:59.808Z,24.03
2019-03-28T04:36:29.746Z,24.20
2019-03-28T04:39:32.440Z,23.70
2019-03-28T04:46:37.691Z,23.67
2019-03-28T04:49:35.840Z,23.53
2019-03-28T04:56:48.171Z,24.40
2019-03-28T04:59:55.595Z,23.03
2019-03-28T05:03:14.501Z,24.20
2019-03-28T05:06:15.607Z,22.43
2019-03-28T05:13:20.268Z,22.93
2019-03-28T05:15:51.522Z,23.60
2019-03-28T05:18:22.668Z,23.13
2019-03-28T05:20:53.755Z,23.73
2019-03-28T05:23:25.025Z,22.77
2019-03-28T05:25:57.184Z,23.30
2019-03-28T05:28:28.359Z,24.60
2019-03-28T05:30:59.394Z,24.70
2019-03-28T05:33:30.419Z,23.67
2019-03-28T05:36:04.361Z,23.37
2019-03-28T05:38:35.522Z,25.03
2019-03-28T05:41:06.479Z,25.37
2019-03-28T05:43:37.670Z,26.13
2019-03-28T05:46:08.762Z,24.20
2019-03-28T05:48:40.845Z,25.30
2019-03-28T05:51:11.945Z,24.27
2019-03-28T05:53:46.555Z,23.50
2019-03-28T05:56:17.806Z,21.27
2019-03-28T05:58:48.967Z,22.20
2019-03-28T06:01:19.995Z,23.87
2019-03-28T06:03:51.186Z,21.87
2019-03-28T06:06:22.490Z,22.97
2019-03-28T06:08:53.731Z,22.47
2019-03-28T06:11:24.569Z,23.03
2019-03-28T06:13:56.695Z,22.50
2019-03-28T06:16:27.874Z,23.60
2019-03-28T06:18:59.122Z,21.63
2019-03-28T06:21:30.530Z,22.13
2019-03-28T06:24:01.985Z,21.07
2019-03-28T06:26:33.619Z,21.03
2019-03-28T06:29:05.077Z,21.73
2019-03-28T06:31:37.040Z,21.80
2019-03-28T06:34:08.547Z,20.83
2019-03-28T06:36:40.487Z,21.07
2019-03-28T06:39:12.850Z,21.67
2019-03-28T06:41:45.012Z,20.73
2019-03-28T06:44:16.760Z,20.00
2019-03-28T06:46:48.276Z,21.13
2019-03-28T06:49:19.815Z,21.30
2019-03-28T06:51:52.641Z,22.97
2019-03-28T06:54:24.355Z,21.93
2019-03-28T06:56:59.054Z,21.13
2019-03-28T06:59:37.522Z,20.93
2019-03-28T07:02:10.105Z,19.73
2019-03-28T07:04:42.812Z,20.73
2019-03-28T07:07:18.438Z,20.83
2019-03-28T07:09:49.854Z,19.33
2019-03-28T07:12:24.321Z,19.43
2019-03-28T07:14:55.981Z,20.37
2019-03-28T07:17:27.789Z,18.63
2019-03-28T07:19:59.165Z,18.97
2019-03-28T07:22:30.443Z,16.87
2019-03-28T07:25:02.337Z,16.77
2019-03-28T07:27:34.311Z,17.07
2019-03-28T07:30:06.981Z,16.57
2019-03-28T07:32:43.496Z,16.90
2019-03-28T07:35:16.003Z,16.83
2019-03-28T07:37:48.176Z,15.13
2019-03-28T07:40:20.507Z,15.87
2019-03-28T07:42:52.816Z,17.37
2019-03-28T07:45:24.510Z,14.73
2019-03-28T07:47:56.886Z,14.50
2019-03-28T07:50:29.070Z,15.30
2019-03-28T07:53:03.278Z,15.87
2019-03-28T07:55:36.710Z,14.73
2019-03-28T07:58:09.195Z,15.13
2019-03-28T08:00:40.621Z,17.07
2019-03-28T08:03:13.027Z,16.87
2019-03-28T08:05:47.541Z,15.00
2019-03-28T08:08:19.453Z,12.73
2019-03-28T08:10:51.494Z,14.13
2019-03-28T08:13:24.314Z,13.63
2019-03-28T08:16:01.028Z,14.43
2019-03-28T08:18:51.439Z,14.07
2019-03-28T08:21:23.401Z,14.77
2019-03-28T08:23:55.338Z,14.13
2019-03-28T08:26:30.082Z,14.10
2019-03-28T08:29:01.691Z,12.87
2019-03-28T08:31:34.443Z,12.27
2019-03-28T08:34:06.404Z,15.53
2019-03-28T08:36:39.976Z,14.83
2019-03-28T08:39:21.538Z,13.83
2019-03-28T08:41:54.872Z,13.53
2019-03-28T08:44:27.335Z,14.33
2019-03-28T08:47:00.943Z,12.00
2019-03-28T08:49:32.555Z,13.30
2019-03-28T08:52:04.896Z,12.43
2019-03-28T08:54:37.188Z,13.27
2019-03-28T08:57:13.626Z,12.13
2019-03-28T08:59:48.204Z,11.70
2019-03-28T09:02:27.214Z,12.67
2019-03-28T09:04:58.667Z,12.43
2019-03-28T09:07:35.077Z,11.87
2019-03-28T09:10:11.654Z,11.30
2019-03-28T09:12:43.976Z,11.17
2019-03-28T09:15:17.266Z,9.37
2019-03-28T09:17:54.389Z,10.27
2019-03-28T09:20:26.464Z,9.93
2019-03-28T09:23:06.101Z,9.33
2019-03-28T09:25:43.300Z,9.57
2019-03-28T09:28:12.819Z,10.10
2019-03-28T09:30:49.626Z,10.50
2019-03-28T09:33:19.112Z,10.73
2019-03-28T09:35:54.826Z,10.03
2019-03-28T09:38:28.108Z,9.30
2019-03-28T09:41:00.238Z,8.70
2019-03-28T09:43:35.411Z,6.53
2019-03-28T09:46:09.601Z,6.93
2019-03-28T09:48:41.996Z,6.10
2019-03-28T09:51:13.640Z,5.60
2019-03-28T09:53:47.902Z,6.43
2019-03-28T09:56:19.872Z,5.90
2019-03-28T09:58:53.319Z,6.30
2019-03-28T10:01:25.204Z,6.00
2019-03-28T10:03:57.110Z,6.87
2019-03-28T10:06:33.282Z,7.03
2019-03-28T10:09:07.448Z,6.40
2019-03-28T10:11:39.241Z,8.30
2019-03-28T10:14:10.665Z,8.00
2019-03-28T10:16:45.407Z,6.90
2019-03-28T10:19:19.322Z,3.70
2019-03-28T10:22:11.672Z,5.23
2019-03-28T10:24:44.622Z,6.23
2019-03-28T10:27:19.024Z,4.37
2019-03-28T10:29:51.240Z,3.13
2019-03-28T10:32:25.775Z,2.90
2019-03-28T10:34:58.524Z,3.27
2019-03-28T10:37:30.635Z,4.60
2019-03-28T10:40:02.752Z,2.63
2019-03-28T10:42:35.961Z,2.63
2019-03-28T10:45:09.400Z,2.10
2019-03-28T10:47:42.891Z,2.23
2019-03-28T10:50:15.747Z,2.10
2019-03-28T10:52:48.875Z,2.83
2019-03-28T10:55:21.582Z,2.70
2019-03-28T10:57:53.470Z,2.70
2019-03-28T11:00:25.915Z,2.70
2019-03-28T11:03:02.615Z,2.90
2019-03-28T11:05:34.517Z,2.53
2019-03-28T11:08:07.922Z,2.87
2019-03-28T11:10:40.347Z,3.00
2019-03-28T11:13:13.946Z,3.00
2019-03-28T11:15:45.861Z,4.27
2019-03-28T11:18:23.905Z,3.60
2019-03-28T11:21:02.422Z,3.03
2019-03-28T11:23:34.427Z,3.23
2019-03-28T11:26:08.262Z,3.50
2019-03-28T11:28:40.143Z,4.77
2019-03-28T11:31:11.876Z,4.20
2019-03-28T11:33:43.368Z,4.30
2019-03-28T11:36:15.056Z,4.47
2019-03-28T11:38:54.874Z,3.90
2019-03-28T11:41:34.682Z,3.83
2019-03-28T11:44:07.028Z,2.83
2019-03-28T11:46:40.136Z,1.70
2019-03-28T11:49:12.641Z,1.90
2019-03-28T11:51:45.200Z,3.60
2019-03-28T11:54:18.196Z,2.37
2019-03-28T11:56:50.648Z,2.60
2019-03-28T11:59:22.915Z,2.40
2019-03-28T12:02:00.473Z,2.37
2019-03-28T12:04:29.413Z,2.90
2019-03-28T12:07:03.901Z,2.70
2019-03-28T12:09:36.307Z,2.83
2019-03-28T12:12:12.155Z,3.40
2019-03-28T12:14:47.628Z,3.60
2019-03-28T12:17:21.117Z,3.80
2019-03-28T12:19:56.689Z,3.37
2019-03-28T12:22:33.033Z,3.37
2019-03-28T12:25:07.449Z,3.63
2019-03-28T12:27:40.333Z,3.30
2019-03-28T12:30:15.714Z,3.23
2019-03-28T12:33:01.174Z,3.47
2019-03-28T12:35:30.392Z,3.67
2019-03-28T12:38:04.746Z,3.57
2019-03-28T12:40:41.686Z,3.33
2019-03-28T12:43:13.842Z,4.20
2019-03-28T12:45:45.539Z,3.53
2019-03-28T12:48:18.587Z,3.70
2019-03-28T12:51:04.366Z,3.87
2019-03-28T12:53:36.640Z,4.13
2019-03-28T12:56:12.342Z,4.77
2019-03-28T12:58:43.482Z,4.93
2019-03-28T13:01:20.367Z,4.93
2019-03-28T13:03:52.682Z,4.43
2019-03-28T13:06:27.441Z,4.43
2019-03-28T13:08:59.320Z,5.10
2019-03-28T13:11:31.935Z,4.87
2019-03-28T13:14:04.164Z,4.80
2019-03-28T13:16:38.227Z,5.57
2019-03-28T13:19:11.217Z,4.77
2019-03-28T13:21:44.986Z,5.20
2019-03-28T13:24:17.841Z,4.20
2019-03-28T13:26:49.968Z,5.03
2019-03-28T13:29:23.476Z,4.43
2019-03-28T13:31:59.917Z,4.53
2019-03-28T13:34:32.941Z,4.17
2019-03-28T13:37:08.422Z,3.93
2019-03-28T13:39:43.841Z,4.50
2019-03-28T13:42:16.598Z,5.00
2019-03-28T13:44:50.016Z,4.50
2019-03-28T13:47:22.493Z,4.17
2019-03-28T13:49:55.211Z,4.83
2019-03-28T13:52:28.312Z,4.10
2019-03-28T13:55:01.284Z,5.40
2019-03-28T13:57:34.611Z,5.03
2019-03-28T14:00:08.407Z,4.80
2019-03-28T14:02:39.970Z,4.83
2019-03-28T14:05:15.184Z,4.70
2019-03-28T14:07:47.001Z,5.03
2019-03-28T14:10:26.122Z,6.13
2019-03-28T14:13:02.742Z,6.17
2019-03-28T14:15:35.307Z,6.73
2019-03-28T14:18:07.547Z,6.93
2019-03-28T14:20:39.407Z,6.70
2019-03-28T14:23:12.562Z,6.60
2019-03-28T14:25:45.754Z,7.20
2019-03-28T14:28:17.876Z,7.90
2019-03-28T14:30:49.663Z,5.70
2019-03-28T14:33:27.076Z,6.90
2019-03-28T14:35:58.537Z,5.93
2019-03-28T14:38:32.217Z,6.13
2019-03-28T14:41:14.572Z,5.60
2019-03-28T14:43:47.902Z,5.77
2019-03-28T14:46:20.499Z,5.93
2019-03-28T14:49:03.738Z,6.63
2019-03-28T14:51:38.786Z,6.40
2019-03-28T14:54:11.642Z,6.33
2019-03-28T14:56:44.944Z,5.63
2019-03-28T14:59:17.223Z,6.57
2019-03-28T15:01:49.482Z,5.60
2019-03-28T15:04:21.463Z,6.00
2019-03-28T15:07:07.054Z,6.53
2019-03-28T15:09:37.343Z,6.53
2019-03-28T15:12:09.407Z,5.87
2019-03-28T15:14:42.797Z,5.80
2019-03-28T15:17:14.892Z,5.70
2019-03-28T15:19:49.219Z,6.03
2019-03-28T15:22:27.204Z,6.80
2019-03-28T15:25:00.594Z,5.93
2019-03-28T15:27:33.231Z,6.63
2019-03-28T15:30:05.876Z,5.70
2019-03-28T15:32:40.691Z,5.90
2019-03-28T15:35:13.138Z,6.93
2019-03-28T15:37:48.527Z,6.73
2019-03-28T15:40:20.234Z,5.93
2019-03-28T15:42:52.358Z,5.47
2019-03-28T15:45:25.485Z,5.60
2019-03-28T15:47:57.356Z,5.57
2019-03-28T15:50:29.654Z,6.70
2019-03-28T15:53:01.984Z,6.77
2019-03-28T15:55:35.157Z,6.60
2019-03-28T15:58:07.687Z,5.60
2019-03-28T16:00:41.603Z,5.97
2019-03-28T16:03:16.046Z,6.60
2019-03-28T16:05:57.433Z,6.10
2019-03-28T16:08:21.422Z,6.20
2019-03-28T16:10:53.722Z,5.40
2019-03-28T16:13:27.466Z,6.77
2019-03-28T16:16:03.092Z,6.23
2019-03-28T16:18:35.453Z,6.43
2019-03-28T16:21:07.764Z,5.93
2019-03-28T16:23:42.882Z,6.13
2019-03-28T16:26:15.003Z,6.50
2019-03-28T16:28:46.404Z,6.33
2019-03-28T16:31:19.667Z,6.90
2019-03-28T16:33:51.708Z,7.40
2019-03-28T16:36:23.523Z,6.27
2019-03-28T16:38:57.793Z,7.13
2019-03-28T16:41:30.103Z,7.27
2019-03-28T16:44:02.728Z,7.23
2019-03-28T16:46:34.582Z,7.33
2019-03-28T16:49:18.939Z,8.03
2019-03-28T16:51:51.659Z,7.57
2019-03-28T16:54:23.603Z,8.30
2019-03-28T16:56:55.429Z,7.67
2019-03-28T16:59:27.429Z,7.77
2019-03-28T17:01:58.798Z,8.03
2019-03-28T17:04:30.961Z,8.00
2019-03-28T17:07:03.172Z,7.60
2019-03-28T17:09:37.709Z,7.00
2019-03-28T17:12:10.627Z,7.33
2019-03-28T17:14:44.290Z,8.23
2019-03-28T17:17:15.841Z,7.10
2019-03-28T17:19:48.433Z,6.60
2019-03-28T17:22:21.179Z,7.90
2019-03-28T17:24:53.964Z,6.80
2019-03-28T17:27:25.770Z,8.13
2019-03-28T17:30:00.523Z,7.80
2019-03-28T17:32:32.215Z,7.30
2019-03-28T17:35:04.277Z,7.93
2019-03-28T17:37:36.861Z,7.00
2019-03-28T17:40:09.003Z,8.13
2019-03-28T17:42:41.014Z,7.40
2019-03-28T17:45:13.944Z,6.23
2019-03-28T17:47:47.115Z,6.33
2019-03-28T17:50:19.064Z,8.30
2019-03-28T17:52:54.898Z,6.07
2019-03-28T17:55:27.009Z,7.13
2019-03-28T17:57:59.405Z,6.20
2019-03-28T18:00:31.209Z,6.63
2019-03-28T18:03:09.589Z,6.50
2019-03-28T18:05:40.608Z,6.60
2019-03-28T18:08:12.596Z,7.43
2019-03-28T18:10:44.460Z,9.53
2019-03-28T18:13:18.334Z,6.70
2019-03-28T18:15:50.189Z,6.43
2019-03-28T18:18:21.495Z,6.80
2019-03-28T18:20:53.168Z,6.77
2019-03-28T18:23:24.447Z,6.67
2019-03-28T18:25:56.090Z,5.83
2019-03-28T18:28:31.329Z,6.07
2019-03-28T18:31:01.852Z,6.73
2019-03-28T18:33:44.936Z,6.13
2019-03-28T18:36:16.379Z,7.20
2019-03-28T18:38:47.798Z,6.67
2019-03-28T18:41:19.321Z,6.37
2019-03-28T18:43:50.883Z,7.53
2019-03-28T18:46:22.521Z,7.57
2019-03-28T18:48:53.863Z,6.13
2019-03-28T18:51:25.045Z,6.67
2019-03-28T18:53:57.329Z,6.33
2019-03-28T18:56:28.951Z,6.83
2019-03-28T18:59:00.143Z,6.03
2019-03-28T19:01:31.930Z,15.07
2019-03-28T19:04:07.403Z,28.57
2019-03-28T19:06:38.676Z,9.40
2019-03-28T19:09:10.147Z,7.40
2019-03-28T19:11:41.389Z,7.30
2019-03-28T19:14:13.559Z,6.43
2019-03-28T19:16:48.105Z,6.93
2019-03-28T19:19:20.847Z,7.13
2019-03-28T19:21:55.752Z,6.97
2019-03-28T19:24:26.518Z,7.73
2019-03-28T19:26:58.039Z,7.90
2019-03-28T19:29:29.496Z,6.83
2019-03-28T19:32:01.066Z,7.30
2019-03-28T19:34:33.494Z,7.23
2019-03-28T19:37:05.400Z,7.80
2019-03-28T19:39:37.196Z,7.20
2019-03-28T19:42:08.736Z,8.17
2019-03-28T19:44:40.308Z,7.40
2019-03-28T19:47:12.863Z,7.23
2019-03-28T19:49:45.179Z,6.80
2019-03-28T19:52:16.404Z,6.90
2019-03-28T19:54:47.786Z,7.30
2019-03-28T19:57:19.596Z,8.13
2019-03-28T19:59:52.751Z,7.40
2019-03-28T20:02:24.630Z,7.63
2019-03-28T20:04:56.540Z,7.20
2019-03-28T20:07:28.219Z,7.70
2019-03-28T20:09:59.395Z,7.20
2019-03-28T20:12:31.774Z,7.03
2019-03-28T20:15:03.370Z,8.07
2019-03-28T20:17:35.524Z,8.83
2019-03-28T20:20:07.925Z,9.97
2019-03-28T20:22:39.880Z,8.60
2019-03-28T20:25:11.579Z,8.97
2019-03-28T20:27:42.940Z,8.37
2019-03-28T20:30:14.581Z,7.40
2019-03-28T20:32:46.134Z,8.07
2019-03-28T20:35:18.157Z,7.43
2019-03-28T20:37:50.519Z,9.27
2019-03-28T20:40:22.545Z,9.13
2019-03-28T20:42:54.504Z,9.20
2019-03-28T20:45:26.758Z,9.20
2019-03-28T20:51:54.383Z,9.20
2019-03-28T20:54:59.579Z,8.97
2019-03-28T20:58:55.022Z,10.43
2019-03-28T21:08:54.488Z,12.40
2019-03-28T21:12:14.372Z,9.67
2019-03-28T21:15:17.463Z,12.97
2019-03-28T21:22:07.515Z,9.97
2019-03-28T21:25:22.868Z,9.90
2019-03-28T21:28:47.406Z,8.80
2019-03-28T21:32:10.540Z,9.33
2019-03-28T21:38:51.606Z,9.57
2019-03-28T21:45:22.898Z,8.90
2019-03-28T21:48:40.275Z,8.97
2019-03-28T21:51:41.420Z,9.30
2019-03-28T21:54:56.374Z,9.43
2019-03-28T21:58:25.252Z,10.67
2019-03-28T22:04:50.371Z,9.90
2019-03-28T22:07:53.605Z,11.43
2019-03-28T22:14:42.393Z,11.40
2019-03-28T22:20:33.316Z,11.63
2019-03-28T22:23:38.436Z,12.83
2019-03-28T22:27:13.030Z,11.87
2019-03-28T22:30:44.178Z,12.40
2019-03-28T22:34:00.685Z,12.33
2019-03-28T22:37:03.706Z,12.57
2019-03-28T22:40:11.782Z,11.43
2019-03-28T22:43:38.554Z,11.17
2019-03-28T22:46:59.175Z,11.97
2019-03-28T22:53:42.040Z,12.43
2019-03-28T23:00:55.917Z,12.20
2019-03-28T23:03:49.463Z,11.27
2019-03-28T23:10:58.224Z,11.30
2019-03-28T23:14:10.476Z,12.43
2019-03-28T23:16:59.222Z,11.60
2019-03-28T23:23:38.798Z,11.97
2019-03-28T23:26:53.553Z,12.37
2019-03-28T23:30:00.731Z,13.17
2019-03-28T23:33:00.019Z,11.70
2019-03-28T23:36:36.005Z,11.03
2019-03-28T23:39:47.716Z,11.47
2019-03-28T23:45:42.713Z,12.83
2019-03-28T23:49:07.519Z,11.70
2019-03-28T23:52:15.324Z,12.70
2019-03-28T23:55:17.080Z,12.27
2019-03-28T23:58:44.200Z,13.00
